createdAt,value
2023-02-18T00:04:55.038Z,-60
2023-02-18T00:09:56.578Z,-59
2023-02-18T00:14:58.310Z,-60
2023-02-18T00:19:59.986Z,-60
2023-02-18T00:25:01.577Z,-60
2023-02-18T00:30:04.117Z,-60
2023-02-18T00:35:06.081Z,-60
2023-02-18T00:40:08.265Z,-60
2023-02-18T00:45:10.069Z,-60
2023-02-18T00:50:11.635Z,-60
2023-02-18T00:55:13.158Z,-60
2023-02-18T01:00:15.557Z,-60
2023-02-18T01:05:17.076Z,-60
2023-02-18T01:10:19.285Z,-60
2023-02-18T01:15:21.516Z,-64
2023-02-18T01:20:23.240Z,-62
2023-02-18T01:25:24.757Z,-60
2023-02-18T01:30:26.328Z,-60
2023-02-18T01:35:28.332Z,-60
2023-02-18T01:40:30.553Z,-59
2023-02-18T01:45:34.927Z,-59
2023-02-18T01:50:43.410Z,-59
2023-02-18T01:55:46.313Z,-59
2023-02-18T02:00:48.084Z,-59
2023-02-18T02:05:49.710Z,-59
2023-02-18T02:10:53.981Z,-59
2023-02-18T02:16:26.785Z,-59
2023-02-18T02:21:52.671Z,-60
2023-02-18T02:27:07.049Z,-59
2023-02-18T02:32:36.882Z,-59
2023-02-18T02:38:04.618Z,-59
2023-02-18T02:43:15.258Z,-60
2023-02-18T02:48:41.917Z,-58
2023-02-18T02:53:44.343Z,-59
2023-02-18T02:58:53.483Z,-60
2023-02-18T03:04:26.790Z,-59
2023-02-18T03:09:47.145Z,-59
2023-02-18T03:15:17.237Z,-59
2023-02-18T03:20:43.384Z,-59
2023-02-18T03:25:45.384Z,-59
2023-02-18T03:30:55.738Z,-58
2023-02-18T03:35:57.866Z,-59
2023-02-18T03:40:59.681Z,-60
2023-02-18T03:46:02.642Z,-60
2023-02-18T03:51:04.426Z,-61
2023-02-18T03:56:07.060Z,-61
2023-02-18T04:01:08.962Z,-61
2023-02-18T04:06:10.778Z,-60
2023-02-18T04:11:12.686Z,-60
2023-02-18T04:16:14.780Z,-60
2023-02-18T04:21:16.335Z,-60
2023-02-18T04:26:17.880Z,-60
2023-02-18T04:31:19.480Z,-60
2023-02-18T04:36:21.353Z,-60
2023-02-18T04:41:22.849Z,-60
2023-02-18T04:46:24.489Z,-60
2023-02-18T04:51:26.128Z,-60
2023-02-18T04:56:27.661Z,-62
2023-02-18T05:01:29.180Z,-59
2023-02-18T05:06:30.741Z,-58
2023-02-18T05:11:32.427Z,-58
2023-02-18T05:16:34.276Z,-58
2023-02-18T05:21:35.782Z,-58
2023-02-18T05:26:37.348Z,-61
2023-02-18T05:31:39.069Z,-59
2023-02-18T05:36:40.663Z,-61
2023-02-18T05:41:42.176Z,-61
2023-02-18T05:46:44.148Z,-61
2023-02-18T05:51:45.752Z,-61
2023-02-18T05:56:47.871Z,-60
2023-02-18T06:01:49.513Z,-61
2023-02-18T06:06:51.138Z,-61
2023-02-18T06:11:52.676Z,-60
2023-02-18T06:16:54.204Z,-60
2023-02-18T06:21:56.250Z,-61
2023-02-18T06:26:57.785Z,-61
2023-02-18T06:32:00.025Z,-61
2023-02-18T06:37:01.673Z,-61
2023-02-18T06:42:03.255Z,-61
2023-02-18T06:47:04.897Z,-60
2023-02-18T06:52:06.449Z,-61
2023-02-18T06:57:08.032Z,-60
2023-02-18T07:02:12.964Z,-61
2023-02-18T07:07:14.842Z,-61
2023-02-18T07:12:16.392Z,-60
2023-02-18T07:17:18.225Z,-60
2023-02-18T07:22:19.740Z,-60
2023-02-18T07:27:22.242Z,-61
2023-02-18T07:32:23.978Z,-61
2023-02-18T07:37:25.561Z,-60
2023-02-18T07:42:27.106Z,-59
2023-02-18T07:47:28.637Z,-59
2023-02-18T07:52:30.206Z,-60
2023-02-18T07:57:31.739Z,-60
2023-02-18T08:02:33.293Z,-59
2023-02-18T08:07:34.990Z,-61
2023-02-18T08:12:37.792Z,-59
2023-02-18T08:17:39.400Z,-59
2023-02-18T08:22:40.913Z,-61
2023-02-18T08:27:42.413Z,-61
2023-02-18T08:32:43.998Z,-60
2023-02-18T08:37:52.139Z,-61
2023-02-18T08:42:55.051Z,-60
2023-02-18T08:48:18.460Z,-59
2023-02-18T08:53:18.778Z,-60
2023-02-18T08:58:20.658Z,-59
2023-02-18T09:03:22.537Z,-61
2023-02-18T09:08:24.026Z,-58
2023-02-18T09:13:26.607Z,-59
2023-02-18T09:18:29.488Z,-59
2023-02-18T09:23:32.486Z,-60
2023-02-18T09:28:35.732Z,-59
2023-02-18T09:33:45.813Z,-60
2023-02-18T09:38:48.493Z,-60
2023-02-18T09:43:54.142Z,-60
2023-02-18T09:48:56.186Z,-61
2023-02-18T09:53:58.199Z,-63
2023-02-18T09:59:04.997Z,-64
2023-02-18T10:04:30.198Z,-63
2023-02-18T10:09:37.268Z,-63
2023-02-18T10:14:38.788Z,-62
2023-02-18T10:19:41.427Z,-62
2023-02-18T10:24:48.826Z,-60
2023-02-18T10:29:50.864Z,-60
2023-02-18T10:35:18.427Z,-61
2023-02-18T10:40:38.644Z,-59
2023-02-18T10:46:09.492Z,-59
2023-02-18T10:51:22.688Z,-57
2023-02-18T10:56:41.437Z,-59
2023-02-18T11:01:46.043Z,-59
2023-02-18T11:06:52.712Z,-59
2023-02-18T11:12:10.128Z,-59
2023-02-18T11:17:20.412Z,-59
2023-02-18T11:22:25.943Z,-60
2023-02-18T11:27:50.233Z,-59
2023-02-18T11:32:57.022Z,-59
2023-02-18T11:38:01.331Z,-59
2023-02-18T11:43:13.308Z,-60
2023-02-18T11:48:23.425Z,-60
2023-02-18T11:53:29.278Z,-60
2023-02-18T11:58:45.000Z,-59
2023-02-18T12:03:59.145Z,-60
2023-02-18T12:09:26.529Z,-58
2023-02-18T12:14:28.276Z,-58
2023-02-18T12:19:57.993Z,-58
2023-02-18T12:25:22.871Z,-59
2023-02-18T12:30:48.273Z,-58
2023-02-18T12:36:08.635Z,-59
2023-02-18T12:41:37.416Z,-59
2023-02-18T12:46:58.559Z,-58
2023-02-18T12:52:27.767Z,-59
2023-02-18T12:57:53.978Z,-59
2023-02-18T13:03:20.592Z,-59
2023-02-18T13:08:44.379Z,-59
2023-02-18T13:14:09.145Z,-59
2023-02-18T13:19:16.380Z,-58
2023-02-18T13:24:27.330Z,-60
2023-02-18T13:29:35.750Z,-59
2023-02-18T13:34:46.300Z,-59
2023-02-18T13:39:52.906Z,-59
2023-02-18T13:44:57.532Z,-59
2023-02-18T13:49:59.096Z,-59
2023-02-18T13:55:00.707Z,-59
2023-02-18T14:00:12.289Z,-60
2023-02-18T14:05:23.925Z,-59
2023-02-18T14:10:31.128Z,-59
2023-02-18T14:15:33.040Z,-60
2023-02-18T14:20:37.308Z,-60
2023-02-18T14:25:42.410Z,-60
2023-02-18T14:30:45.127Z,-59
2023-02-18T14:36:06.337Z,-59
2023-02-18T14:41:46.524Z,-60
2023-02-18T14:47:01.326Z,-58
2023-02-18T14:52:05.928Z,-58
2023-02-18T14:57:14.949Z,-60
2023-02-18T15:02:25.310Z,-59
2023-02-18T15:07:27.348Z,-59
2023-02-18T15:12:29.592Z,-58
2023-02-18T15:17:32.073Z,-57
2023-02-18T15:22:35.698Z,-57
2023-02-18T15:27:42.219Z,-57
2023-02-18T15:32:55.033Z,-56
2023-02-18T15:37:59.678Z,-59
2023-02-18T15:43:04.359Z,-57
2023-02-18T15:48:06.513Z,-60
2023-02-18T15:53:14.901Z,-59
2023-02-18T15:58:37.191Z,-59
2023-02-18T16:03:41.493Z,-58
2023-02-18T16:09:07.447Z,-59
2023-02-18T16:14:22.890Z,-58
2023-02-18T16:19:25.449Z,-57
2023-02-18T16:24:29.512Z,-60
2023-02-18T16:29:37.588Z,-60
2023-02-18T16:34:39.121Z,-57
2023-02-18T16:39:40.918Z,-60
2023-02-18T16:44:42.426Z,-60
2023-02-18T16:49:46.693Z,-61
2023-02-18T16:54:49.063Z,-61
2023-02-18T16:59:50.600Z,-61
2023-02-18T17:04:57.362Z,-61
2023-02-18T17:09:59.676Z,-60
2023-02-18T17:15:01.184Z,-62
2023-02-18T17:20:04.757Z,-62
2023-02-18T17:25:14.433Z,-62
2023-02-18T17:30:16.054Z,-62
2023-02-18T17:35:22.372Z,-61
2023-02-18T17:40:28.336Z,-61
2023-02-18T17:45:35.010Z,-60
2023-02-18T17:50:37.054Z,-61
2023-02-18T17:55:40.084Z,-61
2023-02-18T18:00:55.658Z,-61
2023-02-18T18:05:57.735Z,-61
2023-02-18T18:11:01.226Z,-61
2023-02-18T18:16:02.814Z,-61
2023-02-18T18:21:05.343Z,-61
2023-02-18T18:26:07.359Z,-61
2023-02-18T18:31:15.174Z,-61
2023-02-18T18:36:19.549Z,-61
2023-02-18T18:41:22.650Z,-61
2023-02-18T18:46:24.282Z,-60
2023-02-18T18:51:29.950Z,-61
2023-02-18T18:56:31.643Z,-61
2023-02-18T19:01:33.533Z,-61
2023-02-18T19:06:35.498Z,-61
2023-02-18T19:11:37.031Z,-62
2023-02-18T19:16:42.723Z,-63
2023-02-18T19:21:46.506Z,-61
2023-02-18T19:26:48.082Z,-60
2023-02-18T19:31:50.973Z,-60
2023-02-18T19:36:52.826Z,-62
2023-02-18T19:41:54.374Z,-62
2023-02-18T19:46:56.009Z,-62
2023-02-18T19:52:03.965Z,-62
2023-02-18T19:57:07.339Z,-61
2023-02-18T20:02:14.164Z,-62
2023-02-18T20:07:17.158Z,-62
2023-02-18T20:12:19.589Z,-61
2023-02-18T20:17:21.092Z,-61
2023-02-18T20:22:22.877Z,-61
2023-02-18T20:27:24.769Z,-61
2023-02-18T20:32:26.508Z,-61
2023-02-18T20:37:28.402Z,-63
2023-02-18T20:42:29.944Z,-61
2023-02-18T20:47:31.442Z,-60
2023-02-18T20:52:34.654Z,-60
2023-02-18T20:57:36.531Z,-60
2023-02-18T21:02:38.106Z,-59
2023-02-18T21:07:39.720Z,-60
2023-02-18T21:12:42.654Z,-60
2023-02-18T21:17:44.176Z,-60
2023-02-18T21:22:45.676Z,-60
2023-02-18T21:27:47.175Z,-60
2023-02-18T21:32:48.744Z,-60
2023-02-18T21:37:51.292Z,-59
2023-02-18T21:42:52.886Z,-59
2023-02-18T21:47:54.436Z,-60
2023-02-18T21:52:56.420Z,-59
2023-02-18T21:57:57.905Z,-60
2023-02-18T22:02:59.689Z,-59
2023-02-18T22:08:01.273Z,-59
2023-02-18T22:13:02.847Z,-59
2023-02-18T22:18:04.363Z,-61
2023-02-18T22:23:06.120Z,-60
2023-02-18T22:28:07.683Z,-58
2023-02-18T22:33:09.148Z,-59
2023-02-18T22:38:10.690Z,-60
2023-02-18T22:43:12.191Z,-60
2023-02-18T22:48:13.686Z,-60
2023-02-18T22:53:15.204Z,-60
2023-02-18T22:58:16.721Z,-59
2023-02-18T23:03:18.221Z,-60
2023-02-18T23:08:19.678Z,-61
2023-02-18T23:13:21.159Z,-59
2023-02-18T23:18:22.641Z,-61
2023-02-18T23:23:24.124Z,-61
2023-02-18T23:28:25.619Z,-61
2023-02-18T23:33:27.168Z,-62
2023-02-18T23:38:28.743Z,-62
2023-02-18T23:43:30.836Z,-61
2023-02-18T23:48:37.351Z,-62
2023-02-18T23:53:40.021Z,-64
2023-02-18T23:58:43.702Z,-65
